Weather observations for the past three days for
Point Thomson Airstrip
Imperial (Metric)
Date Time (akdt) Wind (mph) Vis. (mi.) Weather Sky Cond. Temperature (ºF) Relative Humidity Wind Chill (°F) Heat Index (°F) Pressure Precipitation (in)
Air Dwpt 6 hour altimeter (in) sea level (mb) 1 hr 3 hr 6 hr
Max. Min.
07 12:55 W 12 10.00 Overcast OVC009 19.4 16.2 87% 8 30.22 0.0
07 12:35 W 10 10.00 Overcast OVC009 19.2 15.8 86% 9 30.22 0.0
07 12:15 W 10 10.00 Overcast OVC009 18.9 15.8 88% 8 30.22 0.0
07 11:55 W 10 10.00 Overcast OVC009 18.9 15.6 87% 8 30.22 0.0
07 11:35 NW 10 10.00 Overcast OVC009 18.9 15.6 87% 8 30.21 0.0
07 11:15 W 10 10.00 Overcast OVC009 19 15.8 87% 8 30.21 0.0
07 10:55 W 10 10.00 Overcast OVC011 19.2 16.2 88% 9 30.21 0.0
07 10:35 W 12 10.00 Overcast OVC011 19.2 16.3 89% 8 30.2 0.0
07 10:15 W 10 10.00 Overcast OVC011 19.4 16.2 87% 9 30.2 0.0
07 09:55 W 8 10.00 Overcast OVC011 19.4 16.3 19.9 19.2 88% 10 30.2 0.0
07 09:35 W 8 10.00 Overcast OVC011 19.4 16.3 88% 10 30.19 0.0
07 09:15 W 10 10.00 Overcast OVC011 19.4 16.3 88% 9 30.19 0.0
07 08:55 W 9 10.00 Overcast OVC011 19.6 16.5 88% 10 30.18 0.0
07 08:35 NW 9 10.00 Overcast OVC011 19.8 16.5 87% 10 30.18 0.0
07 08:15 NW 12 10.00 Overcast OVC011 19.9 17.1 89% 9 30.17 0.0
07 07:55 NW 9 10.00 Overcast OVC011 19.9 16.5 87% 10 30.17 0.0
07 07:35 W 8 10.00 Overcast OVC011 19.9 16.7 87% 11 30.17 0.0
07 07:15 W 8 10.00 Overcast OVC011 19.9 16.5 87% 11 30.16 0.0
07 06:55 W 7 10.00 Overcast OVC011 19.8 16.3 87% 12 30.16 0.0
07 06:35 W 7 10.00 Overcast OVC011 19.4 16.2 87% 11 30.15 0.0
07 06:15 W 10 10.00 Overcast OVC011 19.4 16.2 87% 9 30.15 0.0
07 05:55 W 12 10.00 Overcast OVC011 19.4 16.2 87% 8 30.15 0.0
07 05:35 W 12 10.00 Overcast OVC011 19.2 16.3 89% 8 30.14 0.0
07 05:15 W 10 10.00 Overcast OVC011 19.4 16.3 88% 9 30.14 0.0
07 04:55 W 9 10.00 Overcast OVC011 19.4 16.5 89% 10 30.14 0.0
07 04:35 W 13 10.00 Overcast OVC011 19.4 16.5 89% 8 30.14 0.0
07 04:15 W 9 G 16 10.00 Overcast OVC011 19.4 16.7 89% 10 30.13 0.0
07 03:55 W 9 10.00 Overcast OVC011 19.4 16.7 21.7 19.2 89% 10 30.13 0.0
07 03:35 W 9 10.00 Overcast OVC011 19.4 16.7 89% 10 30.13 0.0
07 03:15 W 10 10.00 Overcast OVC011 19.4 16.5 89% 9 30.12 0.0
07 02:55 W 13 10.00 Overcast OVC011 19.4 16.5 89% 8 30.11 0.0
07 02:35 W 12 10.00 Overcast OVC011 19.6 16.7 89% 8 30.11 0.0
07 02:15 W 14 10.00 Overcast OVC011 19.8 16.7 88% 7 30.11 0.0
07 01:55 W 14 10.00 Overcast OVC011 19.6 16.7 89% 7 30.1 0.0
07 01:35 W 12 10.00 Overcast OVC011 19.6 16.7 89% 8 30.1 0.0
07 01:15 W 13 10.00 Overcast OVC011 19.8 16.7 88% 8 30.09 0.0
07 00:55 W 12 10.00 Overcast OVC011 20.3 16.9 87% 9 30.08 0.0
07 00:35 W 13 10.00 Overcast OVC011 19.9 16.9 88% 8 30.08 0.0
07 00:15 W 13 10.00 Overcast OVC011 19.8 16.7 88% 8 30.08 0.0
06 23:55 W 15 10.00 Overcast OVC013 20.7 17.1 86% 8 30.07 0.0
06 23:35 W 15 10.00 Overcast OVC013 20.7 17.2 87% 8 30.07 0.0
06 23:15 W 13 10.00 Overcast OVC013 20.8 17.1 85% 9 30.06 0.0
06 22:55 W 13 10.00 Overcast OVC011 21 17.8 87% 10 30.06 0.0
06 22:35 W 13 10.00 Overcast OVC011 21.2 18.3 89% 10 30.06 0.0
06 22:15 W 16 10.00 Overcast OVC011 21.6 18.3 87% 9 30.05 0.0
06 21:55 W 14 G 22 10.00 Overcast OVC013 21.7 18.5 23.7 21.7 87% 10 30.05 0.0
06 21:35 W 17 10.00 Overcast OVC013 21.7 18.3 87% 8 30.04 0.0
06 21:15 W 16 10.00 Overcast OVC013 21.9 18.5 87% 9 30.03 0.0
06 20:55 W 18 10.00 Overcast OVC013 21.9 18.3 86% 8 30.03 0.0
06 20:35 W 17 10.00 Overcast OVC013 22.1 18.5 86% 9 30.02 0.0
06 20:15 W 17 10.00 Overcast OVC013 22.8 19 85% 10 30.02 0.0
06 19:55 W 17 10.00 Overcast OVC015 23 19.4 86% 10 30.01 0.0
06 19:35 W 17 10.00 Overcast OVC015 23 19.2 85% 10 30.01 0.0
06 19:15 W 17 10.00 Overcast OVC015 22.8 19.4 87% 10 30 0.0
06 18:55 W 17 10.00 Overcast OVC015 22.8 19 85% 10 30 0.0
06 18:35 W 20 10.00 Overcast OVC013 22.8 19 85% 9 29.99 0.0
06 18:15 W 20 7.00 Overcast OVC013 22.6 18.5 84% 9 29.99 0.0
06 17:55 W 20 10.00 Overcast OVC015 22.8 18.7 84% 9 29.98 0.0
06 17:35 W 18 10.00 Overcast OVC015 23 18.9 84% 10 29.97 0.0
06 17:15 W 22 G 26 10.00 Overcast and Breezy OVC015 23.4 19 84% 9 29.97 0.0
06 16:55 W 23 10.00 Overcast and Breezy OVC013 23.5 19.6 85% 9 29.96 0.0
06 16:35 W 21 7.00 Overcast and Breezy OVC013 23.2 18.9 83% 9 29.96 0.0
06 16:15 W 22 7.00 Overcast and Breezy OVC013 23 19 85% 9 29.96 0.0
06 15:55 W 22 7.00 Overcast and Breezy OVC013 23 19 23 19.9 85% 9 29.95 0.0
06 15:35 W 20 5.00 Fog/Mist OVC013 23 19 85% 9 29.95 0.0
06 15:15 W 22 5.00 Fog/Mist and Breezy OVC013 23 19.4 86% 9 29.94 0.0
06 14:55 W 22 10.00 Overcast and Breezy OVC013 23 19.8 87% 9 29.93 0.0
06 14:35 W 24 10.00 Overcast and Breezy OVC013 22.8 18.9 85% 8 29.93 0.0
06 14:15 W 22 10.00 Overcast and Breezy OVC013 22.3 18.3 85% 8 29.92 0.0
06 13:55 W 23 5.00 Fog/Mist and Breezy OVC013 21.9 18 85% 7 29.92 0.0
06 13:35 W 23 7.00 Overcast and Breezy OVC013 21.9 18.3 86% 7 29.91 0.0
06 13:15 W 23 7.00 Overcast and Breezy OVC013 21.9 18.3 86% 7 29.91 0.0
06 12:55 W 21 7.00 Overcast and Breezy OVC013 21.7 18 85% 7 29.9 0.0
06 12:35 W 24 7.00 Overcast and Breezy OVC011 21.2 17.6 86% 5 29.9 0.0
06 12:15 W 24 G 29 4.00 Fog/Mist and Breezy OVC011 21.2 17.8 87% 5 29.89 0.0
06 11:55 W 23 4.00 Fog/Mist and Breezy OVC011 20.7 17.6 88% 5 29.88 0.0
06 11:35 W 25 4.00 Fog/Mist and Breezy OVC011 20.3 17.4 89% 4 29.87 0.0
06 11:15 W 23 2.50 Fog/Mist and Breezy OVC011 19.9 16.9 88% 4 29.87 0.0
06 10:55 W 25 2.50 Fog/Mist and Breezy OVC011 20.3 17.4 89% 4 29.87 0.0
06 10:35 W 25 2.00 Fog/Mist and Breezy OVC011 20.3 17.4 89% 4 29.86 0.0
06 10:15 W 25 2.50 Fog/Mist and Breezy OVC011 20.7 17.6 88% 4 29.86 0.0
06 09:55 W 22 4.00 Fog/Mist and Breezy OVC011 20.7 17.6 21.2 19.4 88% 5 29.85 0.0
06 09:35 W 21 2.50 Fog/Mist and Breezy OVC011 20.8 18.1 89% 6 29.85 0.0
06 09:15 W 23 2.50 Fog/Mist and Breezy BKN011 BKN021 OVC085 20.3 18 91% 5 29.84 0.0
06 08:55 W 23 2.00 Light Snow and Breezy BKN011 BKN020 OVC027 20.3 18.1 91% 5 29.84 0.0
06 08:35 W 22 2.50 Light Snow and Breezy BKN011 BKN027 OVC075 20.3 18.5 93% 5 29.83 0.0
06 08:15 W 23 3.00 Light Snow and Breezy BKN013 BKN022 OVC041 20.7 18.5 91% 5 29.83 0.0
06 07:55 W 20 3.00 Light Snow BKN011 OVC037 20.8 18.9 92% 6 29.82 0.0
06 07:35 W 20 3.00 Fog/Mist SCT009 SCT015 OVC037 20.8 18.5 91% 6 29.82 0.0
06 07:15 W 20 5.00 Fog/Mist BKN008 OVC013 21 19.2 93% 7 29.81 0.0
06 06:55 W 23 2.50 Light Snow and Breezy OVC011 21 19.2 93% 6 29.81 0.0
06 06:35 W 24 1.75 Light Snow and Breezy OVC011 21 19.2 93% 5 29.8 0.0
06 06:15 W 22 4.00 Light Snow and Breezy OVC011 21 19.4 93% 6 29.8 0.0
06 05:55 W 22 3.00 Light Snow and Breezy OVC017 20.8 19 93% 6 29.79 0.0
06 05:35 W 20 5.00 Fog/Mist BKN019 BKN024 OVC040 20.3 18.5 93% 6 29.8 0.0
06 05:15 W 24 4.00 Fog/Mist and Breezy SCT021 OVC040 20.1 18.3 93% 4 29.79 0.0
06 04:55 W 22 2.50 Fog/Mist and Breezy SCT010 SCT015 OVC042 20.1 18.3 93% 5 29.79 0.0
06 04:35 W 20 4.00 Light Snow BKN013 OVC047 19.9 18.3 93% 5 29.78 0.0
06 04:15 W 20 3.00 Light Snow BKN010 BKN049 OVC110 19.4 18 94% 5 29.78 0.0
06 03:55 W 21 3.00 Light Snow and Breezy BKN010 BKN029 OVC080 19.8 18.1 22.1 19.4 93% 5 29.77 0.0
06 03:35 W 21 2.00 Light Snow and Breezy SCT048 OVC090 19.6 18 93% 4 29.77 0.0
06 03:15 W 21 2.50 Light Snow and Breezy SCT075 OVC100 19.4 17.8 93% 4 29.77 0.0
06 02:55 W 18 5.00 Light Snow SCT009 SCT037 OVC100 19.8 18.3 94% 5 29.77 0.0
06 02:35 W 22 2.50 Light Snow and Breezy SCT009 BKN060 OVC110 20.5 19 94% 5 29.76 0.0
06 02:15 W 22 4.00 Light Snow and Breezy SCT027 BKN050 OVC095 20.7 19 93% 5 29.76 0.0
06 01:55 W 21 3.00 Light Snow and Breezy SCT026 SCT060 OVC095 20.8 19.2 93% 6 29.75 0.0
06 01:35 W 21 2.00 Light Snow and Breezy BKN019 OVC027 21.2 19.6 93% 7 29.75 0.0
06 01:15 W 20 2.00 Light Snow BKN016 OVC031 21.2 19.8 94% 7 29.74 0.0
06 00:55 W 21 G 24 3.00 Light Snow and Breezy BKN031 BKN050 OVC095 21.2 19.6 93% 7 29.74 0.0
06 00:35 W 21 1.25 Light Snow and Breezy SCT040 SCT065 OVC095 21.2 19.9 95% 7 29.74 0.0
06 00:15 W 21 1.25 Light Snow and Breezy SCT038 SCT050 OVC095 21.2 19.9 95% 7 29.73 0.0
05 23:55 W 22 2.50 Light Snow and Breezy SCT050 SCT075 OVC095 21.4 19.9 94% 6 29.73 0.0
05 23:35 W 21 1.25 Light Snow and Breezy SCT060 OVC070 21.7 20.3 94% 7 29.73 0.0
05 23:15 W 20 1.25 Light Snow SCT021 BKN038 OVC070 21.7 20.3 94% 8 29.73 0.0
05 22:55 W 22 1.25 Light Snow and Breezy OVC019 21.7 20.3 94% 7 29.73 0.0
05 22:35 W 21 G 26 1.00 Light Snow and Breezy OVC021 21.9 20.3 93% 7 29.73 0.0
05 22:15 W 22 1.50 Light Snow and Breezy BKN021 OVC032 22.1 20.3 93% 7 29.73 0.0
05 21:55 W 23 1.00 Light Snow and Breezy BKN021 OVC032 22.1 20.5 25.2 22.1 93% 7 29.72 0.0
05 21:35 W 22 1.25 Light Snow and Breezy BKN036 BKN050 OVC110 22.1 20.8 95% 7 29.72 0.0
05 21:15 W 23 1.00 Light Snow and Breezy OVC034 22.3 20.7 93% 7 29.72 0.0
05 20:55 W 22 1.25 Light Snow and Breezy OVC034 22.5 20.8 93% 8 29.72 0.0
05 20:35 W 21 1.50 Light Snow and Breezy SCT034 BKN041 OVC065 22.6 21 93% 8 29.72 0.0
05 20:15 W 24 1.50 Light Snow and Breezy BKN070 OVC080 22.6 20.7 92% 7 29.72 0.0
05 19:55 W 23 3.00 Light Snow and Breezy SCT080 OVC090 23 21 92% 8 29.71 0.0
05 19:35 W 22 1.75 Fog/Mist and Breezy SCT009 SCT040 OVC100 23 21.2 93% 9 29.71 0.0
05 19:15 W 21 1.50 Light Snow and Breezy SCT009 BKN090 OVC110 23.5 21.6 92% 10 29.71 0.0
05 18:55 W 22 2.00 Fog/Mist and Breezy BKN015 BKN034 OVC110 23.9 21.7 91% 10 29.71 0.0
05 18:35 W 21 1.50 Light Snow and Breezy BKN009 OVC017 24.3 22.1 91% 11 29.71 0.0
05 18:15 W 21 2.00 Fog/Mist and Breezy BKN009 OVC015 24.6 22.1 90% 11 29.7 0.0
05 17:55 W 21 2.50 Fog/Mist and Breezy SCT007 OVC017 24.8 22.1 89% 11 29.7 0.0
05 17:35 W 21 1.00 Light Snow and Breezy BKN007 BKN011 OVC023 25.2 23 91% 12 29.7 0.0
05 17:15 W 22 1.00 Light Snow and Breezy BKN006 BKN011 OVC025 24.8 22.8 92% 11 29.7 0.0
05 16:55 W 16 1.00 Light Snow BKN011 OVC025 25.2 23.2 92% 13 29.7 0.0
05 16:35 W 17 1.00 Light Snow BKN011 OVC025 24.8 23 93% 12 29.7 0.0
05 16:15 W 17 1.00 Light Snow SCT004 OVC025 24.8 23 93% 12 29.7 0.0
05 15:55 W 14 0.75 Light Snow SCT004 OVC025 24.8 23 25 23.4 93% 14 29.7 0.0
05 15:35 W 13 0.75 Light Snow SCT004 OVC025 24.8 23.4 94% 14 29.7 0.0
05 15:15 W 10 1.00 Light Snow BKN006 BKN012 OVC025 24.8 23 93% 15 29.7 0.0
05 14:55 W 10 1.00 Light Snow OVC008 24.8 23 93% 15 29.7 0.0
05 14:35 W 8 1.50 Light Snow OVC008 24.8 23 93% 17 29.7 0.0
05 14:15 W 6 5.00 Fog/Mist OVC006 24.8 23 93% 19 29.7 0.0
05 13:55 Calm 2.00 Fog/Mist OVC006 24.6 23 94% 29.7 0.0
05 13:35 Calm 1.75 Light Snow OVC004 24.6 23 94% 29.7 0.0
05 13:15 NE 3 0.75 Light Snow OVC004 24.4 23.4 96% 29.69 0.0
05 12:55 NE 6 1.75 Light Snow OVC004 24.3 23.4 96% 18 29.69 0.0
05 12:35 E 7 4.00 Fog/Mist OVC004 24.4 23.4 96% 17 29.69 0.0
05 12:15 E 10 7.00 Overcast OVC004 24.4 23 94% 15 29.69 0.0
05 11:55 E 10 7.00 Overcast OVC004 24.3 23 95% 15 29.7 0.0
05 11:35 E 12 10.00 Overcast OVC004 23.9 22.8 96% 14 29.7 0.0
05 11:15 E 13 10.00 Overcast OVC004 23.9 22.8 96% 13 29.7 0.0
05 10:55 E 13 10.00 Overcast OVC004 23.9 22.6 95% 13 29.71 0.0
05 10:35 E 16 10.00 Overcast OVC004 23.9 22.6 95% 12 29.71 0.0
05 10:15 E 15 2.50 Fog/Mist OVC004 23.4 22.6 97% 11 29.71 0.0
05 09:55 E 16 1.75 Fog/Mist OVC004 23.4 22.5 23.9 22.8 96% 11 29.72 0.0
05 09:35 E 18 2.00 Fog/Mist OVC004 23.4 22.3 96% 10 29.73 0.0
05 09:15 E 16 10.00 Overcast OVC004 23.4 22.1 95% 11 29.72 0.0
05 08:55 E 17 7.00 Overcast OVC004 23.4 22.1 95% 11 29.73 0.0
05 08:35 E 16 10.00 Overcast OVC004 23.4 22.1 95% 11 29.74 0.0
05 08:15 E 16 7.00 Overcast OVC004 23 22.1 96% 11 29.74 0.0
05 07:55 E 15 0.75 Light Snow OVC004 23 22.1 96% 11 29.74 0.0
05 07:35 NE 17 1.25 Light Snow OVC004 23 22.1 96% 10 29.75 0.0
05 07:15 NE 17 5.00 Fog/Mist OVC004 23 22.3 97% 10 29.76 0.0
05 06:55 E 16 5.00 Fog/Mist OVC004 23 22.5 98% 11 29.77 0.0
05 06:35 E 16 10.00 Overcast OVC004 23 22.1 96% 11 29.77 0.0
05 06:15 E 14 10.00 Overcast OVC004 23.4 22.5 96% 12 29.78 0.0
05 05:55 E 18 7.00 Overcast OVC004 23.5 22.6 96% 10 29.78 0.0
05 05:35 E 17 7.00 Overcast OVC004 23.7 22.8 96% 11 29.79 0.0
05 05:15 E 21 7.00 Overcast and Breezy OVC004 23.9 23 96% 10 29.79 0.0
05 04:55 E 22 4.00 Fog/Mist and Breezy OVC004 23.9 23.4 98% 10 29.8 0.0
05 04:35 E 23 1.00 Fog/Mist and Breezy OVC004 23.9 23.4 98% 9 29.8 0.0
05 04:15 E 21 1.50 Fog/Mist and Breezy OVC004 23.9 23.4 98% 10 29.81 0.0
05 03:55 E 20 4.00 Fog/Mist OVC004 23.9 23 25.2 23.9 96% 10 29.82 0.0
05 03:35 E 20 5.00 Fog/Mist OVC004 23.9 23 96% 10 29.83 0.0
05 03:15 E 23 3.00 Fog/Mist and Breezy OVC004 23.9 23 96% 9 29.83 0.0
05 02:55 E 22 3.00 Fog/Mist and Breezy OVC004 24.3 23.5 97% 10 29.84 0.0
05 02:35 E 22 3.00 Fog/Mist and Breezy OVC004 24.4 23.9 98% 10 29.84 0.0
05 02:15 E 24 1.75 Fog/Mist and Breezy OVC004 24.3 23.7 98% 10 29.85 0.0
05 01:55 E 26 2.00 Fog/Mist and Windy OVC004 24.3 23.5 97% 9 29.86 0.0
05 01:35 E 25 2.50 Fog/Mist and Breezy BKN004 OVC008 24.3 23.5 97% 9 29.86 0.0
05 01:15 E 24 2.50 Light Snow and Breezy OVC007 24.4 23.5 96% 10 29.87 0.0
05 00:55 E 24 1.75 Light Snow and Breezy OVC007 24.3 23.4 96% 10 29.87 0.0
05 00:35 E 23 1.25 Light Snow and Breezy OVC007 24.3 23.4 96% 10 29.88 0.0
05 00:15 E 24 1.25 Fog/Mist and Breezy OVC005 24.3 23.4 96% 10 29.88 0.0
04 23:55 E 24 1.75 Fog/Mist and Breezy OVC005 24.4 23.5 96% 10 29.9 0.0
04 23:35 E 25 1.25 Fog/Mist and Breezy OVC005 24.4 23.7 97% 9 29.9 0.0
04 23:15 E 28 0.75 Fog/Mist and Windy OVC005 24.6 23.9 97% 9 29.91 0.0
04 22:55 E 29 1.00 Fog/Mist and Windy OVC005 24.6 23.9 97% 9 29.92 0.0
04 22:35 E 28 1.00 Fog/Mist and Windy OVC005 24.8 23.9 96% 9 29.93 0.0
04 22:15 E 28 1.00 Fog/Mist and Windy OVC005 24.8 23.9 96% 9 29.94 0.0
04 21:55 E 28 1.25 Fog/Mist and Windy OVC005 25.3 24.3 27.3 25.3 96% 10 29.95 0.0
04 21:35 E 28 1.75 Fog/Mist and Windy OVC005 25.5 24.4 96% 10 29.95 0.0
04 21:15 E 28 2.00 Fog/Mist and Windy OVC005 25.7 24.6 96% 11 29.96 0.0
04 20:55 E 26 2.00 Fog/Mist and Windy OVC005 25.7 24.6 96% 11 29.97 0.0
04 20:15 E 28 1.75 Fog/Mist and Windy OVC005 25.7 24.6 96% 11 29.99 0.0
04 19:55 E 28 2.00 Fog/Mist and Windy OVC005 25.7 24.8 96% 11 30 0.0
04 19:35 E 23 G 31 2.00 Fog/Mist and Breezy OVC007 26.2 24.8 94% 12 30 0.0
04 19:15 E 22 2.50 Fog/Mist and Breezy OVC007 26.6 25.3 95% 13 30.01 0.0
04 18:55 E 23 3.00 Fog/Mist and Breezy OVC007 26.6 25.3 95% 13 30.02 0.0
04 18:35 E 24 3.00 Fog/Mist and Breezy OVC007 26.6 25.3 95% 13 30.03 0.0
04 18:15 E 26 2.00 Fog/Mist and Windy OVC007 26.8 25.2 94% 12 30.03 0.0
04 17:55 E 23 4.00 Fog/Mist and Breezy OVC005 27.1 25.7 94% 14 30.04 0.0
04 17:35 E 23 4.00 Fog/Mist and Breezy OVC005 27.1 25.7 94% 14 30.05 0.0
04 17:15 E 22 4.00 Fog/Mist and Breezy OVC005 27.1 25.7 94% 14 30.06 0.0
04 16:55 E 20 5.00 Fog/Mist OVC005 27 25.5 94% 14 30.06 0.0
04 16:35 E 21 4.00 Fog/Mist and Breezy OVC005 26.6 25.3 95% 14 30.07 0.0
04 16:15 E 20 3.00 Fog/Mist OVC005 26.6 25.2 94% 14 30.08 0.0
04 15:55 E 20 3.00 Fog/Mist OVC005 26.6 25.2 26.6 23.4 94% 14 30.09 0.0
04 15:35 E 21 3.00 Fog/Mist and Breezy OVC005 26.6 25.2 94% 14 30.09 0.0
04 15:15 E 20 4.00 Fog/Mist OVC005 26.4 24.8 94% 14 30.1 0.0
04 14:55 E 20 4.00 Fog/Mist OVC005 26.4 24.8 94% 14 30.11 0.0
04 14:35 E 17 3.00 Fog/Mist OVC005 26.4 24.8 94% 14 30.11 0.0
04 14:15 E 17 3.00 Fog/Mist OVC005 25.7 24.3 94% 14 30.11 0.0
04 13:55 E 16 2.50 Fog/Mist OVC005 25.3 23.7 94% 13 30.12 0.0
04 13:35 E 16 3.00 Fog/Mist OVC005 25.2 23.4 93% 13 30.13 0.0
04 13:15 E 15 5.00 Fog/Mist OVC005 25.3 23.4 92% 14 30.14 0.0
Date Time (akdt) Wind (mph) Vis. (mi.) Weather Sky Cond. Air Dwpt Max. Min. Relative Humidity Wind Chill (°F) Heat Index (°F) altimeter (in) sea level (mb) 1 hr 3 hr 6 hr
6 hour
Temperature (ºF) Pressure Precipitation (in)